sensor_id;sensor_type;location;lat;lon;timestamp;temperature;humidity
28524;DHT22;15734;50.904;6.922;2023-02-12T00:00:02;7.10;99.90
28524;DHT22;15734;50.904;6.922;2023-02-12T00:02:28;7.10;99.90
28524;DHT22;15734;50.904;6.922;2023-02-12T00:04:54;7.10;99.90
28524;DHT22;15734;50.904;6.922;2023-02-12T00:07:19;7.20;99.90
28524;DHT22;15734;50.904;6.922;2023-02-12T00:09:45;7.10;99.90
28524;DHT22;15734;50.904;6.922;2023-02-12T00:12:10;7.20;99.90
28524;DHT22;15734;50.904;6.922;2023-02-12T00:14:36;7.20;99.90
28524;DHT22;15734;50.904;6.922;2023-02-12T00:17:02;7.20;99.90
28524;DHT22;15734;50.904;6.922;2023-02-12T00:19:28;7.20;99.90
28524;DHT22;15734;50.904;6.922;2023-02-12T00:21:53;7.30;99.90
28524;DHT22;15734;50.904;6.922;2023-02-12T00:24:18;7.30;99.90
28524;DHT22;15734;50.904;6.922;2023-02-12T00:26:44;7.30;99.90
28524;DHT22;15734;50.904;6.922;2023-02-12T00:29:09;7.30;99.90
28524;DHT22;15734;50.904;6.922;2023-02-12T00:31:35;7.20;99.90
28524;DHT22;15734;50.904;6.922;2023-02-12T00:34:01;7.20;99.90
28524;DHT22;15734;50.904;6.922;2023-02-12T00:36:27;7.20;99.90
28524;DHT22;15734;50.904;6.922;2023-02-12T00:38:53;7.30;99.90
28524;DHT22;15734;50.904;6.922;2023-02-12T00:41:19;7.30;99.90
28524;DHT22;15734;50.904;6.922;2023-02-12T00:43:44;7.30;99.90
28524;DHT22;15734;50.904;6.922;2023-02-12T00:46:10;7.20;99.90
28524;DHT22;15734;50.904;6.922;2023-02-12T00:48:36;7.10;99.90
28524;DHT22;15734;50.904;6.922;2023-02-12T00:51:02;7.20;99.90
28524;DHT22;15734;50.904;6.922;2023-02-12T00:53:28;7.10;99.90
28524;DHT22;15734;50.904;6.922;2023-02-12T00:55:54;7.10;99.90
28524;DHT22;15734;50.904;6.922;2023-02-12T00:58:19;7.10;99.90
28524;DHT22;15734;50.904;6.922;2023-02-12T01:00:45;7.00;99.90
28524;DHT22;15734;50.904;6.922;2023-02-12T01:03:10;7.10;99.90
28524;DHT22;15734;50.904;6.922;2023-02-12T01:05:36;7.00;99.90
28524;DHT22;15734;50.904;6.922;2023-02-12T01:08:02;7.00;99.90
28524;DHT22;15734;50.904;6.922;2023-02-12T01:10:27;7.10;99.90
28524;DHT22;15734;50.904;6.922;2023-02-12T01:12:53;7.00;99.90
28524;DHT22;15734;50.904;6.922;2023-02-12T01:15:19;7.00;99.90
28524;DHT22;15734;50.904;6.922;2023-02-12T01:17:45;7.00;99.90
28524;DHT22;15734;50.904;6.922;2023-02-12T01:20:12;6.90;99.90
28524;DHT22;15734;50.904;6.922;2023-02-12T01:22:38;6.90;99.90
28524;DHT22;15734;50.904;6.922;2023-02-12T01:25:04;6.90;99.90
28524;DHT22;15734;50.904;6.922;2023-02-12T01:27:29;6.80;99.90
28524;DHT22;15734;50.904;6.922;2023-02-12T01:29:55;6.90;99.90
28524;DHT22;15734;50.904;6.922;2023-02-12T01:32:20;6.90;99.90
28524;DHT22;15734;50.904;6.922;2023-02-12T01:34:46;6.90;99.90
28524;DHT22;15734;50.904;6.922;2023-02-12T01:37:11;6.90;99.90
28524;DHT22;15734;50.904;6.922;2023-02-12T01:39:37;6.90;99.90
28524;DHT22;15734;50.904;6.922;2023-02-12T01:42:02;6.90;99.90
28524;DHT22;15734;50.904;6.922;2023-02-12T01:44:29;6.90;99.90
28524;DHT22;15734;50.904;6.922;2023-02-12T01:46:56;6.90;99.90
28524;DHT22;15734;50.904;6.922;2023-02-12T01:49:30;6.90;99.90
28524;DHT22;15734;50.904;6.922;2023-02-12T01:51:58;7.00;99.90
28524;DHT22;15734;50.904;6.922;2023-02-12T01:54:25;7.10;99.90
28524;DHT22;15734;50.904;6.922;2023-02-12T01:56:51;7.10;99.90
28524;DHT22;15734;50.904;6.922;2023-02-12T01:59:17;7.10;99.90
28524;DHT22;15734;50.904;6.922;2023-02-12T02:01:43;7.10;99.90
28524;DHT22;15734;50.904;6.922;2023-02-12T02:04:11;7.10;99.90
28524;DHT22;15734;50.904;6.922;2023-02-12T02:06:43;7.10;99.90
28524;DHT22;15734;50.904;6.922;2023-02-12T02:09:10;7.10;99.90
28524;DHT22;15734;50.904;6.922;2023-02-12T02:11:36;7.10;99.90
28524;DHT22;15734;50.904;6.922;2023-02-12T02:14:20;7.00;99.90
28524;DHT22;15734;50.904;6.922;2023-02-12T02:19:34;6.80;99.90
28524;DHT22;15734;50.904;6.922;2023-02-12T02:27:19;6.60;99.90
28524;DHT22;15734;50.904;6.922;2023-02-12T02:32:39;6.70;99.90
28524;DHT22;15734;50.904;6.922;2023-02-12T02:37:32;6.60;99.90
28524;DHT22;15734;50.904;6.922;2023-02-12T02:42:43;6.70;99.90
28524;DHT22;15734;50.904;6.922;2023-02-12T02:45:15;6.70;99.90
28524;DHT22;15734;50.904;6.922;2023-02-12T02:47:43;6.70;99.90
28524;DHT22;15734;50.904;6.922;2023-02-12T02:50:11;6.70;99.90
28524;DHT22;15734;50.904;6.922;2023-02-12T02:55:35;6.70;99.90
28524;DHT22;15734;50.904;6.922;2023-02-12T02:58:05;6.80;99.90
28524;DHT22;15734;50.904;6.922;2023-02-12T03:00:37;6.70;99.90
28524;DHT22;15734;50.904;6.922;2023-02-12T03:03:23;6.80;99.90
28524;DHT22;15734;50.904;6.922;2023-02-12T03:05:52;6.80;99.90
28524;DHT22;15734;50.904;6.922;2023-02-12T03:08:19;6.80;99.90
28524;DHT22;15734;50.904;6.922;2023-02-12T03:10:51;6.80;99.90
28524;DHT22;15734;50.904;6.922;2023-02-12T03:13:22;6.80;99.90
28524;DHT22;15734;50.904;6.922;2023-02-12T03:15:50;6.80;99.90
28524;DHT22;15734;50.904;6.922;2023-02-12T03:18:18;6.70;99.90
28524;DHT22;15734;50.904;6.922;2023-02-12T03:20:47;6.70;99.90
28524;DHT22;15734;50.904;6.922;2023-02-12T03:23:16;6.70;99.90
28524;DHT22;15734;50.904;6.922;2023-02-12T03:25:48;6.70;99.90
28524;DHT22;15734;50.904;6.922;2023-02-12T03:28:19;6.70;99.90
28524;DHT22;15734;50.904;6.922;2023-02-12T03:35:39;6.70;99.90
28524;DHT22;15734;50.904;6.922;2023-02-12T03:38:15;6.70;99.90
28524;DHT22;15734;50.904;6.922;2023-02-12T03:40:49;6.70;99.90
28524;DHT22;15734;50.904;6.922;2023-02-12T03:43:38;6.70;99.90
28524;DHT22;15734;50.904;6.922;2023-02-12T03:51:32;6.70;99.90
28524;DHT22;15734;50.904;6.922;2023-02-12T03:53:59;6.70;99.90
28524;DHT22;15734;50.904;6.922;2023-02-12T03:56:31;6.80;99.90
28524;DHT22;15734;50.904;6.922;2023-02-12T03:58:57;6.70;99.90
28524;DHT22;15734;50.904;6.922;2023-02-12T04:01:22;6.70;99.90
28524;DHT22;15734;50.904;6.922;2023-02-12T04:03:48;6.60;99.90
28524;DHT22;15734;50.904;6.922;2023-02-12T04:06:23;6.70;99.90
28524;DHT22;15734;50.904;6.922;2023-02-12T04:08:50;6.80;99.90
28524;DHT22;15734;50.904;6.922;2023-02-12T04:14:07;6.90;99.90
28524;DHT22;15734;50.904;6.922;2023-02-12T04:16:42;6.80;99.90
28524;DHT22;15734;50.904;6.922;2023-02-12T04:19:10;6.80;99.90
28524;DHT22;15734;50.904;6.922;2023-02-12T04:24:14;6.80;99.90
28524;DHT22;15734;50.904;6.922;2023-02-12T04:26:47;6.70;99.90
28524;DHT22;15734;50.904;6.922;2023-02-12T04:29:18;6.60;99.90
28524;DHT22;15734;50.904;6.922;2023-02-12T04:31:56;6.60;99.90
28524;DHT22;15734;50.904;6.922;2023-02-12T04:39:33;6.70;99.90
28524;DHT22;15734;50.904;6.922;2023-02-12T04:42:00;6.80;99.90
28524;DHT22;15734;50.904;6.922;2023-02-12T04:44:27;6.90;99.90
28524;DHT22;15734;50.904;6.922;2023-02-12T04:46:52;6.90;99.90
28524;DHT22;15734;50.904;6.922;2023-02-12T04:49:19;6.90;99.90
28524;DHT22;15734;50.904;6.922;2023-02-12T04:51:45;6.90;99.90
28524;DHT22;15734;50.904;6.922;2023-02-12T04:54:11;6.90;99.90
28524;DHT22;15734;50.904;6.922;2023-02-12T04:56:36;6.80;99.90
28524;DHT22;15734;50.904;6.922;2023-02-12T04:59:02;6.70;99.90
28524;DHT22;15734;50.904;6.922;2023-02-12T05:01:28;6.70;99.90
28524;DHT22;15734;50.904;6.922;2023-02-12T05:03:53;6.70;99.90
28524;DHT22;15734;50.904;6.922;2023-02-12T05:06:19;6.70;99.90
28524;DHT22;15734;50.904;6.922;2023-02-12T05:08:44;6.70;99.90
28524;DHT22;15734;50.904;6.922;2023-02-12T05:11:10;6.70;99.90
28524;DHT22;15734;50.904;6.922;2023-02-12T05:13:36;6.70;99.90
28524;DHT22;15734;50.904;6.922;2023-02-12T05:16:05;6.70;99.90
28524;DHT22;15734;50.904;6.922;2023-02-12T05:18:31;6.70;99.90
28524;DHT22;15734;50.904;6.922;2023-02-12T05:21:01;6.60;99.90
28524;DHT22;15734;50.904;6.922;2023-02-12T05:23:27;6.60;99.90
28524;DHT22;15734;50.904;6.922;2023-02-12T05:25:53;6.60;99.90
28524;DHT22;15734;50.904;6.922;2023-02-12T05:28:18;6.50;99.90
28524;DHT22;15734;50.904;6.922;2023-02-12T05:30:44;6.50;99.90
28524;DHT22;15734;50.904;6.922;2023-02-12T05:33:09;6.50;99.90
28524;DHT22;15734;50.904;6.922;2023-02-12T05:35:35;6.50;99.90
28524;DHT22;15734;50.904;6.922;2023-02-12T05:38:00;6.50;99.90
28524;DHT22;15734;50.904;6.922;2023-02-12T05:40:26;6.50;99.90
28524;DHT22;15734;50.904;6.922;2023-02-12T05:42:51;6.50;99.90
28524;DHT22;15734;50.904;6.922;2023-02-12T05:45:17;6.50;99.90
28524;DHT22;15734;50.904;6.922;2023-02-12T05:47:42;6.50;99.90
28524;DHT22;15734;50.904;6.922;2023-02-12T05:50:08;6.50;99.90
28524;DHT22;15734;50.904;6.922;2023-02-12T05:52:33;6.50;99.90
28524;DHT22;15734;50.904;6.922;2023-02-12T05:54:59;6.40;99.90
28524;DHT22;15734;50.904;6.922;2023-02-12T05:57:24;6.40;99.90
28524;DHT22;15734;50.904;6.922;2023-02-12T05:59:49;6.40;99.90
28524;DHT22;15734;50.904;6.922;2023-02-12T06:02:15;6.50;99.90
28524;DHT22;15734;50.904;6.922;2023-02-12T06:04:40;6.50;99.90
28524;DHT22;15734;50.904;6.922;2023-02-12T06:07:06;6.60;99.90
28524;DHT22;15734;50.904;6.922;2023-02-12T06:09:32;6.60;99.90
28524;DHT22;15734;50.904;6.922;2023-02-12T06:11:58;6.60;99.90
28524;DHT22;15734;50.904;6.922;2023-02-12T06:14:23;6.60;99.90
28524;DHT22;15734;50.904;6.922;2023-02-12T06:16:50;6.60;99.90
28524;DHT22;15734;50.904;6.922;2023-02-12T06:19:16;6.60;99.90
28524;DHT22;15734;50.904;6.922;2023-02-12T06:21:41;6.60;99.90
28524;DHT22;15734;50.904;6.922;2023-02-12T06:24:08;6.50;99.90
28524;DHT22;15734;50.904;6.922;2023-02-12T06:26:34;6.50;99.90
28524;DHT22;15734;50.904;6.922;2023-02-12T06:29:00;6.50;99.90
28524;DHT22;15734;50.904;6.922;2023-02-12T06:31:26;6.60;99.90
28524;DHT22;15734;50.904;6.922;2023-02-12T06:33:53;6.70;99.90
28524;DHT22;15734;50.904;6.922;2023-02-12T06:36:19;6.60;99.90
28524;DHT22;15734;50.904;6.922;2023-02-12T06:38:45;6.60;99.90
28524;DHT22;15734;50.904;6.922;2023-02-12T06:41:11;6.60;99.90
28524;DHT22;15734;50.904;6.922;2023-02-12T06:43:37;6.60;99.90
28524;DHT22;15734;50.904;6.922;2023-02-12T06:46:03;6.60;99.90
28524;DHT22;15734;50.904;6.922;2023-02-12T06:48:29;6.60;99.90
28524;DHT22;15734;50.904;6.922;2023-02-12T06:50:55;6.50;99.90
28524;DHT22;15734;50.904;6.922;2023-02-12T06:53:20;6.50;99.90
28524;DHT22;15734;50.904;6.922;2023-02-12T06:55:45;6.50;99.90
28524;DHT22;15734;50.904;6.922;2023-02-12T06:58:11;6.40;99.90
28524;DHT22;15734;50.904;6.922;2023-02-12T07:00:36;6.40;99.90
28524;DHT22;15734;50.904;6.922;2023-02-12T07:03:02;6.40;99.90
28524;DHT22;15734;50.904;6.922;2023-02-12T07:05:27;6.40;99.90
28524;DHT22;15734;50.904;6.922;2023-02-12T07:07:53;6.40;99.90
28524;DHT22;15734;50.904;6.922;2023-02-12T07:10:18;6.40;99.90
28524;DHT22;15734;50.904;6.922;2023-02-12T07:12:44;6.40;99.90
28524;DHT22;15734;50.904;6.922;2023-02-12T07:15:10;6.40;99.90
28524;DHT22;15734;50.904;6.922;2023-02-12T07:17:35;6.40;99.90
28524;DHT22;15734;50.904;6.922;2023-02-12T07:20:01;6.40;99.90
28524;DHT22;15734;50.904;6.922;2023-02-12T07:22:27;6.50;99.90
28524;DHT22;15734;50.904;6.922;2023-02-12T07:24:52;6.50;99.90
28524;DHT22;15734;50.904;6.922;2023-02-12T07:27:18;6.50;99.90
28524;DHT22;15734;50.904;6.922;2023-02-12T07:29:43;6.70;99.90
28524;DHT22;15734;50.904;6.922;2023-02-12T07:32:09;6.70;99.90
28524;DHT22;15734;50.904;6.922;2023-02-12T07:34:34;6.70;99.90
28524;DHT22;15734;50.904;6.922;2023-02-12T07:37:00;6.80;99.90
28524;DHT22;15734;50.904;6.922;2023-02-12T07:39:25;6.80;99.90
28524;DHT22;15734;50.904;6.922;2023-02-12T07:41:51;6.90;99.90
28524;DHT22;15734;50.904;6.922;2023-02-12T07:44:16;6.90;99.90
28524;DHT22;15734;50.904;6.922;2023-02-12T07:46:43;6.90;99.90
28524;DHT22;15734;50.904;6.922;2023-02-12T07:49:20;6.90;99.90
28524;DHT22;15734;50.904;6.922;2023-02-12T07:51:46;7.00;99.90
28524;DHT22;15734;50.904;6.922;2023-02-12T07:54:12;7.00;99.90
28524;DHT22;15734;50.904;6.922;2023-02-12T07:56:38;7.10;99.90
28524;DHT22;15734;50.904;6.922;2023-02-12T07:59:05;7.20;99.90
28524;DHT22;15734;50.904;6.922;2023-02-12T08:01:32;7.20;99.90
28524;DHT22;15734;50.904;6.922;2023-02-12T08:03:59;7.30;99.90
28524;DHT22;15734;50.904;6.922;2023-02-12T08:06:25;7.30;99.90
28524;DHT22;15734;50.904;6.922;2023-02-12T08:08:55;7.40;99.90
28524;DHT22;15734;50.904;6.922;2023-02-12T08:17:36;7.60;99.90
28524;DHT22;15734;50.904;6.922;2023-02-12T08:20:18;7.70;99.90
28524;DHT22;15734;50.904;6.922;2023-02-12T08:22:44;7.80;99.90
28524;DHT22;15734;50.904;6.922;2023-02-12T08:25:09;7.80;99.90
28524;DHT22;15734;50.904;6.922;2023-02-12T08:27:35;7.80;99.90
28524;DHT22;15734;50.904;6.922;2023-02-12T08:30:00;7.90;99.90
28524;DHT22;15734;50.904;6.922;2023-02-12T08:32:26;7.80;99.90
28524;DHT22;15734;50.904;6.922;2023-02-12T08:34:53;7.80;99.90
28524;DHT22;15734;50.904;6.922;2023-02-12T08:37:19;7.80;99.90
28524;DHT22;15734;50.904;6.922;2023-02-12T08:39:44;7.80;99.90
28524;DHT22;15734;50.904;6.922;2023-02-12T08:42:10;7.80;99.90
28524;DHT22;15734;50.904;6.922;2023-02-12T08:44:35;7.80;99.90
28524;DHT22;15734;50.904;6.922;2023-02-12T08:47:01;7.80;99.90
28524;DHT22;15734;50.904;6.922;2023-02-12T08:49:27;7.80;99.90
28524;DHT22;15734;50.904;6.922;2023-02-12T08:51:54;7.90;99.90
28524;DHT22;15734;50.904;6.922;2023-02-12T08:54:21;7.90;99.90
28524;DHT22;15734;50.904;6.922;2023-02-12T08:56:46;8.00;99.90
28524;DHT22;15734;50.904;6.922;2023-02-12T08:59:12;8.10;99.90
28524;DHT22;15734;50.904;6.922;2023-02-12T09:01:38;8.00;99.90
28524;DHT22;15734;50.904;6.922;2023-02-12T09:04:06;8.00;99.90
28524;DHT22;15734;50.904;6.922;2023-02-12T09:06:32;8.10;99.90
28524;DHT22;15734;50.904;6.922;2023-02-12T09:08:58;8.00;99.90
28524;DHT22;15734;50.904;6.922;2023-02-12T09:11:25;8.10;99.90
28524;DHT22;15734;50.904;6.922;2023-02-12T09:13:58;8.00;99.90
28524;DHT22;15734;50.904;6.922;2023-02-12T09:16:25;8.00;99.90
28524;DHT22;15734;50.904;6.922;2023-02-12T09:18:51;8.10;99.90
28524;DHT22;15734;50.904;6.922;2023-02-12T09:21:16;8.10;99.90
28524;DHT22;15734;50.904;6.922;2023-02-12T09:23:44;8.10;99.90
28524;DHT22;15734;50.904;6.922;2023-02-12T09:26:15;8.20;99.90
28524;DHT22;15734;50.904;6.922;2023-02-12T09:28:41;8.30;99.90
28524;DHT22;15734;50.904;6.922;2023-02-12T09:31:10;8.40;99.90
28524;DHT22;15734;50.904;6.922;2023-02-12T09:33:36;8.40;99.90
28524;DHT22;15734;50.904;6.922;2023-02-12T09:36:12;8.40;99.90
28524;DHT22;15734;50.904;6.922;2023-02-12T09:38:38;8.40;99.90
28524;DHT22;15734;50.904;6.922;2023-02-12T09:43:34;8.60;99.90
28524;DHT22;15734;50.904;6.922;2023-02-12T09:46:04;8.60;99.90
28524;DHT22;15734;50.904;6.922;2023-02-12T09:48:52;8.70;99.90
28524;DHT22;15734;50.904;6.922;2023-02-12T09:51:18;8.80;99.90
28524;DHT22;15734;50.904;6.922;2023-02-12T09:53:44;9.00;99.90
28524;DHT22;15734;50.904;6.922;2023-02-12T09:56:12;8.90;99.90
28524;DHT22;15734;50.904;6.922;2023-02-12T09:58:40;8.90;99.90
28524;DHT22;15734;50.904;6.922;2023-02-12T10:01:10;8.90;99.90
28524;DHT22;15734;50.904;6.922;2023-02-12T10:03:37;8.90;99.90
28524;DHT22;15734;50.904;6.922;2023-02-12T10:06:03;9.10;99.90
28524;DHT22;15734;50.904;6.922;2023-02-12T10:11:00;9.30;99.90
28524;DHT22;15734;50.904;6.922;2023-02-12T10:21:19;9.50;99.90
28524;DHT22;15734;50.904;6.922;2023-02-12T10:28:42;9.60;99.90
28524;DHT22;15734;50.904;6.922;2023-02-12T10:31:28;9.60;99.90
28524;DHT22;15734;50.904;6.922;2023-02-12T10:33:54;9.70;99.90
28524;DHT22;15734;50.904;6.922;2023-02-12T10:39:17;9.70;99.90
28524;DHT22;15734;50.904;6.922;2023-02-12T10:44:19;9.60;99.90
28524;DHT22;15734;50.904;6.922;2023-02-12T10:46:44;9.80;99.90
28524;DHT22;15734;50.904;6.922;2023-02-12T10:49:10;9.90;99.90
28524;DHT22;15734;50.904;6.922;2023-02-12T10:51:40;9.90;99.90
28524;DHT22;15734;50.904;6.922;2023-02-12T10:56:52;9.90;99.90
28524;DHT22;15734;50.904;6.922;2023-02-12T10:59:23;9.80;99.90
28524;DHT22;15734;50.904;6.922;2023-02-12T11:01:49;10.00;99.90
28524;DHT22;15734;50.904;6.922;2023-02-12T11:04:25;10.00;99.90
28524;DHT22;15734;50.904;6.922;2023-02-12T11:06:55;10.00;99.90
28524;DHT22;15734;50.904;6.922;2023-02-12T11:09:28;10.00;99.90
28524;DHT22;15734;50.904;6.922;2023-02-12T11:11:54;10.10;99.90
28524;DHT22;15734;50.904;6.922;2023-02-12T11:14:20;10.20;99.90
28524;DHT22;15734;50.904;6.922;2023-02-12T11:16:50;10.20;99.90
28524;DHT22;15734;50.904;6.922;2023-02-12T11:19:23;10.20;99.90
28524;DHT22;15734;50.904;6.922;2023-02-12T11:21:49;10.20;99.90
28524;DHT22;15734;50.904;6.922;2023-02-12T11:26:46;10.20;99.90
28524;DHT22;15734;50.904;6.922;2023-02-12T11:29:20;10.20;99.90
28524;DHT22;15734;50.904;6.922;2023-02-12T11:31:59;10.40;99.90
28524;DHT22;15734;50.904;6.922;2023-02-12T11:34:24;10.50;99.90
28524;DHT22;15734;50.904;6.922;2023-02-12T11:36:51;10.60;99.90
28524;DHT22;15734;50.904;6.922;2023-02-12T11:39:27;10.60;99.90
28524;DHT22;15734;50.904;6.922;2023-02-12T11:41:54;10.60;99.90
28524;DHT22;15734;50.904;6.922;2023-02-12T11:44:27;10.60;99.90
28524;DHT22;15734;50.904;6.922;2023-02-12T11:47:04;10.40;99.90
28524;DHT22;15734;50.904;6.922;2023-02-12T11:49:47;10.50;99.90
28524;DHT22;15734;50.904;6.922;2023-02-12T11:52:19;10.60;99.90
28524;DHT22;15734;50.904;6.922;2023-02-12T11:54:45;10.50;99.90
28524;DHT22;15734;50.904;6.922;2023-02-12T11:59:57;10.60;99.90
28524;DHT22;15734;50.904;6.922;2023-02-12T12:02:24;10.80;99.90
28524;DHT22;15734;50.904;6.922;2023-02-12T12:04:53;10.80;99.90
28524;DHT22;15734;50.904;6.922;2023-02-12T12:07:29;10.70;99.90
28524;DHT22;15734;50.904;6.922;2023-02-12T12:10:06;10.80;99.90
28524;DHT22;15734;50.904;6.922;2023-02-12T12:12:37;10.90;99.90
28524;DHT22;15734;50.904;6.922;2023-02-12T12:20:49;11.00;99.90
28524;DHT22;15734;50.904;6.922;2023-02-12T12:25:50;11.00;99.90
28524;DHT22;15734;50.904;6.922;2023-02-12T12:28:39;11.00;99.90
28524;DHT22;15734;50.904;6.922;2023-02-12T12:31:12;10.80;99.90
28524;DHT22;15734;50.904;6.922;2023-02-12T12:33:43;11.00;99.90
28524;DHT22;15734;50.904;6.922;2023-02-12T12:36:31;11.00;99.90
28524;DHT22;15734;50.904;6.922;2023-02-12T12:39:22;11.10;99.90
28524;DHT22;15734;50.904;6.922;2023-02-12T12:49:59;11.30;99.90
28524;DHT22;15734;50.904;6.922;2023-02-12T13:02:31;11.40;99.90
28524;DHT22;15734;50.904;6.922;2023-02-12T13:20:09;11.30;99.90
28524;DHT22;15734;50.904;6.922;2023-02-12T13:22:57;11.40;99.90
28524;DHT22;15734;50.904;6.922;2023-02-12T13:27:49;11.50;99.90
28524;DHT22;15734;50.904;6.922;2023-02-12T13:35:15;11.70;99.90
28524;DHT22;15734;50.904;6.922;2023-02-12T13:37:43;11.70;99.90
28524;DHT22;15734;50.904;6.922;2023-02-12T13:40:14;11.70;99.90
28524;DHT22;15734;50.904;6.922;2023-02-12T13:43:00;11.70;99.90
28524;DHT22;15734;50.904;6.922;2023-02-12T13:53:01;11.60;99.90
28524;DHT22;15734;50.904;6.922;2023-02-12T13:55:31;11.60;99.90
28524;DHT22;15734;50.904;6.922;2023-02-12T14:03:14;11.60;99.90
28524;DHT22;15734;50.904;6.922;2023-02-12T14:05:39;11.60;99.90
28524;DHT22;15734;50.904;6.922;2023-02-12T14:08:05;11.60;99.90
28524;DHT22;15734;50.904;6.922;2023-02-12T14:10:36;11.50;99.90
28524;DHT22;15734;50.904;6.922;2023-02-12T14:15:35;11.40;99.90
28524;DHT22;15734;50.904;6.922;2023-02-12T14:20:31;11.50;99.90
28524;DHT22;15734;50.904;6.922;2023-02-12T14:27:48;11.50;99.90
28524;DHT22;15734;50.904;6.922;2023-02-12T14:38:02;11.40;99.90
28524;DHT22;15734;50.904;6.922;2023-02-12T14:45:55;11.30;99.90
28524;DHT22;15734;50.904;6.922;2023-02-12T14:48:38;11.40;99.90
28524;DHT22;15734;50.904;6.922;2023-02-12T14:51:04;11.30;99.90
28524;DHT22;15734;50.904;6.922;2023-02-12T14:53:31;11.30;99.90
28524;DHT22;15734;50.904;6.922;2023-02-12T14:55:58;11.30;99.90
28524;DHT22;15734;50.904;6.922;2023-02-12T14:58:25;11.40;99.90
28524;DHT22;15734;50.904;6.922;2023-02-12T15:00:52;11.30;99.90
28524;DHT22;15734;50.904;6.922;2023-02-12T15:03:21;11.30;99.90
28524;DHT22;15734;50.904;6.922;2023-02-12T15:11:12;11.30;99.90
28524;DHT22;15734;50.904;6.922;2023-02-12T15:16:28;11.30;99.90
28524;DHT22;15734;50.904;6.922;2023-02-12T15:18:57;11.20;99.90
28524;DHT22;15734;50.904;6.922;2023-02-12T15:21:25;11.20;99.90
28524;DHT22;15734;50.904;6.922;2023-02-12T15:24:10;11.20;99.90
28524;DHT22;15734;50.904;6.922;2023-02-12T15:26:40;11.20;99.90
28524;DHT22;15734;50.904;6.922;2023-02-12T15:29:06;11.10;99.90
28524;DHT22;15734;50.904;6.922;2023-02-12T15:31:40;11.00;99.90
28524;DHT22;15734;50.904;6.922;2023-02-12T15:34:06;11.10;99.90
28524;DHT22;15734;50.904;6.922;2023-02-12T15:36:32;11.10;99.90
28524;DHT22;15734;50.904;6.922;2023-02-12T15:39:02;11.10;99.90
28524;DHT22;15734;50.904;6.922;2023-02-12T15:43:54;11.10;99.90
28524;DHT22;15734;50.904;6.922;2023-02-12T15:46:20;11.10;99.90
28524;DHT22;15734;50.904;6.922;2023-02-12T15:48:46;11.10;99.90
28524;DHT22;15734;50.904;6.922;2023-02-12T15:51:25;11.00;99.90
28524;DHT22;15734;50.904;6.922;2023-02-12T15:53:51;10.80;99.90
28524;DHT22;15734;50.904;6.922;2023-02-12T15:56:18;10.80;99.90
28524;DHT22;15734;50.904;6.922;2023-02-12T16:01:23;10.80;99.90
28524;DHT22;15734;50.904;6.922;2023-02-12T16:04:10;10.80;99.90
28524;DHT22;15734;50.904;6.922;2023-02-12T16:06:35;10.80;99.90
28524;DHT22;15734;50.904;6.922;2023-02-12T16:09:02;10.80;99.90
28524;DHT22;15734;50.904;6.922;2023-02-12T16:11:29;10.80;99.90
28524;DHT22;15734;50.904;6.922;2023-02-12T16:13:58;10.80;99.90
28524;DHT22;15734;50.904;6.922;2023-02-12T16:16:25;10.80;99.90
28524;DHT22;15734;50.904;6.922;2023-02-12T16:21:36;10.70;99.90
28524;DHT22;15734;50.904;6.922;2023-02-12T16:24:02;10.70;99.90
28524;DHT22;15734;50.904;6.922;2023-02-12T16:26:28;10.70;99.90
28524;DHT22;15734;50.904;6.922;2023-02-12T16:28:54;10.60;99.90
28524;DHT22;15734;50.904;6.922;2023-02-12T16:31:21;10.60;99.90
28524;DHT22;15734;50.904;6.922;2023-02-12T16:33:48;10.60;99.90
28524;DHT22;15734;50.904;6.922;2023-02-12T16:38:50;10.50;99.90
28524;DHT22;15734;50.904;6.922;2023-02-12T16:41:20;10.50;99.90
28524;DHT22;15734;50.904;6.922;2023-02-12T16:46:24;10.60;99.90
28524;DHT22;15734;50.904;6.922;2023-02-12T16:48:50;10.60;99.90
28524;DHT22;15734;50.904;6.922;2023-02-12T16:53:48;10.40;99.90
28524;DHT22;15734;50.904;6.922;2023-02-12T16:56:17;10.40;99.90
28524;DHT22;15734;50.904;6.922;2023-02-12T16:58:49;10.40;99.90
28524;DHT22;15734;50.904;6.922;2023-02-12T17:01:16;10.40;99.90
28524;DHT22;15734;50.904;6.922;2023-02-12T17:03:43;10.40;99.90
28524;DHT22;15734;50.904;6.922;2023-02-12T17:06:12;10.40;99.90
28524;DHT22;15734;50.904;6.922;2023-02-12T17:08:37;10.40;99.90
28524;DHT22;15734;50.904;6.922;2023-02-12T17:11:03;10.40;99.90
28524;DHT22;15734;50.904;6.922;2023-02-12T17:13:28;10.30;99.90
28524;DHT22;15734;50.904;6.922;2023-02-12T17:15:55;10.30;99.90
28524;DHT22;15734;50.904;6.922;2023-02-12T17:18:21;10.30;99.90
28524;DHT22;15734;50.904;6.922;2023-02-12T17:20:48;10.20;99.90
28524;DHT22;15734;50.904;6.922;2023-02-12T17:23:15;10.20;99.90
28524;DHT22;15734;50.904;6.922;2023-02-12T17:25:41;10.20;99.90
28524;DHT22;15734;50.904;6.922;2023-02-12T17:28:06;10.30;99.90
28524;DHT22;15734;50.904;6.922;2023-02-12T17:30:33;10.20;99.90
28524;DHT22;15734;50.904;6.922;2023-02-12T17:32:58;10.20;99.90
28524;DHT22;15734;50.904;6.922;2023-02-12T17:35:24;10.20;99.90
28524;DHT22;15734;50.904;6.922;2023-02-12T17:37:50;10.20;99.90
28524;DHT22;15734;50.904;6.922;2023-02-12T17:40:16;10.20;99.90
28524;DHT22;15734;50.904;6.922;2023-02-12T17:42:42;10.20;99.90
28524;DHT22;15734;50.904;6.922;2023-02-12T17:45:07;10.20;99.90
28524;DHT22;15734;50.904;6.922;2023-02-12T17:47:33;10.20;99.90
28524;DHT22;15734;50.904;6.922;2023-02-12T17:50:13;10.10;99.90
28524;DHT22;15734;50.904;6.922;2023-02-12T17:52:39;10.00;99.90
28524;DHT22;15734;50.904;6.922;2023-02-12T17:55:05;10.00;99.90
28524;DHT22;15734;50.904;6.922;2023-02-12T17:57:31;10.00;99.90
28524;DHT22;15734;50.904;6.922;2023-02-12T17:59:57;10.00;99.90
28524;DHT22;15734;50.904;6.922;2023-02-12T18:02:22;10.00;99.90
28524;DHT22;15734;50.904;6.922;2023-02-12T18:04:48;10.00;99.90
28524;DHT22;15734;50.904;6.922;2023-02-12T18:07:13;10.00;99.90
28524;DHT22;15734;50.904;6.922;2023-02-12T18:09:40;10.00;99.90
28524;DHT22;15734;50.904;6.922;2023-02-12T18:12:09;9.90;99.90
28524;DHT22;15734;50.904;6.922;2023-02-12T18:14:34;9.90;99.90
28524;DHT22;15734;50.904;6.922;2023-02-12T18:17:00;9.80;99.90
28524;DHT22;15734;50.904;6.922;2023-02-12T18:19:27;9.80;99.90
28524;DHT22;15734;50.904;6.922;2023-02-12T18:21:52;9.70;99.90
28524;DHT22;15734;50.904;6.922;2023-02-12T18:24:18;9.70;99.90
28524;DHT22;15734;50.904;6.922;2023-02-12T18:26:43;9.70;99.90
28524;DHT22;15734;50.904;6.922;2023-02-12T18:29:09;9.70;99.90
28524;DHT22;15734;50.904;6.922;2023-02-12T18:31:34;9.60;99.90
28524;DHT22;15734;50.904;6.922;2023-02-12T18:34:00;9.60;99.90
28524;DHT22;15734;50.904;6.922;2023-02-12T18:36:26;9.60;99.90
28524;DHT22;15734;50.904;6.922;2023-02-12T18:38:52;9.60;99.90
28524;DHT22;15734;50.904;6.922;2023-02-12T18:41:19;9.60;99.90
28524;DHT22;15734;50.904;6.922;2023-02-12T18:43:45;9.50;99.90
28524;DHT22;15734;50.904;6.922;2023-02-12T18:46:15;9.50;99.90
28524;DHT22;15734;50.904;6.922;2023-02-12T18:48:41;9.50;99.90